createdAt,value
2019-01-12T00:00:36.389Z,30.56
2019-01-12T00:03:02.812Z,30.48
2019-01-12T00:05:29.182Z,30.46
2019-01-12T00:07:55.549Z,30.69
2019-01-12T00:10:21.904Z,30.67
2019-01-12T00:12:48.322Z,30.69
2019-01-12T00:15:14.685Z,30.71
2019-01-12T00:17:41.158Z,30.71
2019-01-12T00:20:07.687Z,30.79
2019-01-12T00:22:34.042Z,30.83
2019-01-12T00:25:00.452Z,30.60
2019-01-12T00:27:26.809Z,30.58
2019-01-12T00:29:53.200Z,30.58
2019-01-12T00:32:19.671Z,30.53
2019-01-12T00:34:45.990Z,30.61
2019-01-12T00:37:12.350Z,30.58
2019-01-12T00:39:38.763Z,30.60
2019-01-12T00:42:05.115Z,30.65
2019-01-12T00:44:31.536Z,30.74
2019-01-12T00:46:57.954Z,30.80
2019-01-12T00:49:24.296Z,30.70
2019-01-12T00:51:50.649Z,30.76
2019-01-12T00:54:17.066Z,30.64
2019-01-12T00:56:43.438Z,30.68
2019-01-12T00:59:09.898Z,30.67
2019-01-12T01:01:36.347Z,30.74
2019-01-12T01:04:02.781Z,30.75
2019-01-12T01:06:29.196Z,30.81
2019-01-12T01:08:55.571Z,30.81
2019-01-12T01:11:21.991Z,30.88
2019-01-12T01:13:48.392Z,30.75
2019-01-12T01:16:14.765Z,30.74
2019-01-12T01:18:41.131Z,30.65
2019-01-12T01:21:07.512Z,30.60
2019-01-12T01:23:33.869Z,30.66
2019-01-12T01:26:00.363Z,30.71
2019-01-12T01:28:26.799Z,30.73
2019-01-12T01:30:53.150Z,30.76
2019-01-12T01:33:19.564Z,30.79
2019-01-12T01:35:45.895Z,30.84
2019-01-12T01:38:12.313Z,30.81
2019-01-12T01:40:38.762Z,30.85
2019-01-12T01:43:05.125Z,30.77
2019-01-12T01:45:31.483Z,30.69
2019-01-12T01:47:57.945Z,30.78
2019-01-12T01:50:24.319Z,30.68
2019-01-12T01:52:50.738Z,30.65
2019-01-12T01:55:17.152Z,30.69
2019-01-12T01:57:43.544Z,30.68
2019-01-12T02:00:09.915Z,30.69
2019-01-12T02:02:36.271Z,30.68
2019-01-12T02:05:02.696Z,30.84
2019-01-12T02:07:29.075Z,30.85
2019-01-12T02:09:55.644Z,30.87
2019-01-12T02:12:22.170Z,30.89
2019-01-12T02:14:48.523Z,30.93
2019-01-12T02:17:14.949Z,30.94
2019-01-12T02:19:41.308Z,30.92
2019-01-12T02:22:07.673Z,30.82
2019-01-12T02:24:34.067Z,30.88
2019-01-12T02:27:00.500Z,30.83
2019-01-12T02:29:26.869Z,30.85
2019-01-12T02:31:53.324Z,30.92
2019-01-12T02:34:19.729Z,30.91
2019-01-12T02:36:46.037Z,30.82
2019-01-12T02:39:12.457Z,30.84
2019-01-12T02:41:38.810Z,30.82
2019-01-12T02:44:05.327Z,30.79
2019-01-12T02:46:31.760Z,30.72
2019-01-12T02:48:58.087Z,30.80
2019-01-12T02:51:24.501Z,30.88
2019-01-12T02:53:50.863Z,30.86
2019-01-12T02:56:17.301Z,30.96
2019-01-12T02:58:43.638Z,30.97
2019-01-12T03:01:10.059Z,30.88
2019-01-12T03:03:36.457Z,30.88
2019-01-12T03:06:02.904Z,30.88
2019-01-12T03:08:29.255Z,30.92
2019-01-12T03:10:55.628Z,30.80
2019-01-12T03:13:22.171Z,30.90
2019-01-12T03:15:48.695Z,30.85
2019-01-12T03:18:15.050Z,30.94
2019-01-12T03:20:41.534Z,30.97
2019-01-12T03:23:07.852Z,31.05
2019-01-12T03:25:34.296Z,31.02
2019-01-12T03:28:00.660Z,31.01
2019-01-12T03:30:27.018Z,30.99
2019-01-12T03:32:53.392Z,31.03
2019-01-12T03:35:19.811Z,30.91
2019-01-12T03:37:46.309Z,30.80
2019-01-12T03:40:12.742Z,30.88
2019-01-12T03:42:39.173Z,30.85
2019-01-12T03:45:05.545Z,30.92
2019-01-12T03:47:31.990Z,30.90
2019-01-12T03:49:58.356Z,30.97
2019-01-12T03:52:24.716Z,31.00
2019-01-12T03:54:51.223Z,30.97
2019-01-12T03:57:17.569Z,30.95
2019-01-12T03:59:43.974Z,30.93
2019-01-12T04:02:10.341Z,30.99
2019-01-12T04:04:38.017Z,30.85
2019-01-12T04:07:03.236Z,30.85
2019-01-12T04:09:29.592Z,30.92
2019-01-12T04:11:56.025Z,30.93
2019-01-12T04:14:22.405Z,30.88
2019-01-12T04:16:48.802Z,30.93
2019-01-12T04:19:15.166Z,30.93
2019-01-12T04:21:41.573Z,30.92
2019-01-12T04:24:08.022Z,30.92
2019-01-12T04:26:34.361Z,30.87
2019-01-12T04:29:00.703Z,30.84
2019-01-12T04:31:27.033Z,30.82
2019-01-12T04:33:53.434Z,30.82
2019-01-12T04:36:19.756Z,30.75
2019-01-12T04:38:46.086Z,30.82
2019-01-12T04:41:12.483Z,30.83
2019-01-12T04:43:38.869Z,30.83
2019-01-12T04:46:05.200Z,30.84
2019-01-12T04:48:31.531Z,30.88
2019-01-12T04:50:57.863Z,30.79
2019-01-12T04:53:24.201Z,30.89
2019-01-12T04:55:50.587Z,30.71
2019-01-12T04:58:16.928Z,30.59
2019-01-12T05:00:43.316Z,30.53
2019-01-12T05:03:09.640Z,30.68
2019-01-12T05:05:35.964Z,30.80
2019-01-12T05:08:02.342Z,30.92
2019-01-12T05:10:28.690Z,30.83
2019-01-12T05:12:55.015Z,30.87
2019-01-12T05:15:21.347Z,30.87
2019-01-12T05:17:47.759Z,30.78
2019-01-12T05:20:14.119Z,30.79
2019-01-12T05:22:40.457Z,30.77
2019-01-12T05:25:06.849Z,30.78
2019-01-12T05:27:33.194Z,30.71
2019-01-12T05:29:59.646Z,30.70
2019-01-12T05:32:26.036Z,30.70
2019-01-12T05:34:52.517Z,30.69
2019-01-12T05:37:18.854Z,30.67
2019-01-12T05:39:45.180Z,30.71
2019-01-12T05:42:11.551Z,30.75
2019-01-12T05:44:37.888Z,30.80
2019-01-12T05:47:04.276Z,30.84
2019-01-12T05:49:30.607Z,30.88
2019-01-12T05:51:57.008Z,30.87
2019-01-12T05:54:23.389Z,30.90
2019-01-12T05:56:49.724Z,30.80
2019-01-12T05:59:16.076Z,30.91
2019-01-12T06:01:42.428Z,30.88
2019-01-12T06:04:08.759Z,30.78
2019-01-12T06:06:35.143Z,30.76
2019-01-12T06:09:01.530Z,30.83
2019-01-12T06:11:27.861Z,30.79
2019-01-12T06:13:54.210Z,30.83
2019-01-12T06:16:20.560Z,30.88
2019-01-12T06:18:46.891Z,30.95
2019-01-12T06:21:13.214Z,30.95
2019-01-12T06:23:39.561Z,31.05
2019-01-12T06:26:05.897Z,30.94
2019-01-12T06:28:32.273Z,30.92
2019-01-12T06:30:58.604Z,30.83
2019-01-12T06:33:25.010Z,30.80
2019-01-12T06:35:51.340Z,30.82
2019-01-12T06:38:17.692Z,30.82
2019-01-12T06:40:44.127Z,30.93
2019-01-12T06:43:10.417Z,30.97
2019-01-12T06:45:36.825Z,30.97
2019-01-12T06:48:03.166Z,31.00
2019-01-12T06:50:29.554Z,30.93
2019-01-12T06:52:55.950Z,30.90
2019-01-12T06:55:22.233Z,30.91
2019-01-12T06:57:48.565Z,30.91
2019-01-12T07:00:14.900Z,30.84
2019-01-12T07:02:41.218Z,30.91
2019-01-12T07:05:07.611Z,30.71
2019-01-12T07:07:33.961Z,30.76
2019-01-12T07:10:00.447Z,30.79
2019-01-12T07:12:26.782Z,30.70
2019-01-12T07:14:53.190Z,30.74
2019-01-12T07:17:19.532Z,30.79
2019-01-12T07:19:45.862Z,30.74
2019-01-12T07:22:12.204Z,30.80
2019-01-12T07:24:38.534Z,30.78
2019-01-12T07:27:04.930Z,30.83
2019-01-12T07:29:31.273Z,30.92
2019-01-12T07:31:57.605Z,30.96
2019-01-12T07:34:23.985Z,31.01
2019-01-12T07:36:50.326Z,31.00
2019-01-12T07:39:16.656Z,31.07
2019-01-12T07:41:42.989Z,30.98
2019-01-12T07:44:09.353Z,30.99
2019-01-12T07:46:35.685Z,30.87
2019-01-12T07:49:02.163Z,30.89
2019-01-12T07:51:28.527Z,30.84
2019-01-12T07:53:54.885Z,30.80
2019-01-12T07:56:24.716Z,30.83
2019-01-12T07:58:47.655Z,30.75
2019-01-12T08:01:13.993Z,30.70
2019-01-12T08:03:40.404Z,30.71
2019-01-12T08:06:06.755Z,30.64
2019-01-12T08:08:33.108Z,30.75
2019-01-12T08:10:59.452Z,30.71
2019-01-12T08:13:25.831Z,30.70
2019-01-12T08:15:52.215Z,30.62
2019-01-12T08:18:18.553Z,30.52
2019-01-12T08:20:45.027Z,30.53
2019-01-12T08:23:11.332Z,30.59
2019-01-12T08:25:37.726Z,30.45
2019-01-12T08:28:04.016Z,30.52
2019-01-12T08:30:30.360Z,30.59
2019-01-12T08:32:56.827Z,30.54
2019-01-12T08:35:23.209Z,30.62
2019-01-12T08:37:49.554Z,30.62
2019-01-12T08:40:15.901Z,30.42
2019-01-12T08:42:42.237Z,30.38
2019-01-12T08:45:08.644Z,30.41
2019-01-12T08:47:34.997Z,30.23
2019-01-12T08:50:01.334Z,30.37
2019-01-12T08:52:27.660Z,30.38
2019-01-12T08:54:53.987Z,30.46
2019-01-12T08:57:20.316Z,30.40
2019-01-12T08:59:46.632Z,30.39
2019-01-12T09:02:12.975Z,30.26
2019-01-12T09:04:43.554Z,30.33
2019-01-12T09:07:05.711Z,30.17
2019-01-12T09:09:32.041Z,30.25
2019-01-12T09:11:58.430Z,30.31
2019-01-12T09:14:24.761Z,30.19
2019-01-12T09:16:51.085Z,30.45
2019-01-12T09:19:17.573Z,30.50
2019-01-12T09:21:43.897Z,30.32
2019-01-12T09:24:10.232Z,30.37
2019-01-12T09:26:36.661Z,30.26
2019-01-12T09:29:03.045Z,30.39
2019-01-12T09:31:29.568Z,30.44
2019-01-12T09:33:55.938Z,30.42
2019-01-12T09:36:22.291Z,30.39
2019-01-12T09:38:48.806Z,30.46
2019-01-12T09:41:15.011Z,30.35
2019-01-12T09:43:41.394Z,30.48
2019-01-12T09:46:07.713Z,30.53
2019-01-12T09:48:34.058Z,30.54
2019-01-12T09:51:00.400Z,30.65
2019-01-12T09:53:26.789Z,30.73
2019-01-12T09:55:53.157Z,30.61
2019-01-12T09:58:19.496Z,30.81
2019-01-12T10:00:45.884Z,30.60
2019-01-12T10:03:12.214Z,30.73
2019-01-12T10:05:38.596Z,30.83
2019-01-12T10:08:04.922Z,30.74
2019-01-12T10:10:31.320Z,30.66
2019-01-12T10:12:57.660Z,30.74
2019-01-12T10:15:24.000Z,30.70
2019-01-12T10:17:50.330Z,30.65
2019-01-12T10:20:16.715Z,30.65
2019-01-12T10:22:43.035Z,30.68
2019-01-12T10:25:09.370Z,30.58
2019-01-12T10:27:35.745Z,30.73
2019-01-12T10:30:02.134Z,30.77
2019-01-12T10:32:28.411Z,30.71
2019-01-12T10:34:54.754Z,30.76
2019-01-12T10:37:21.091Z,30.77
2019-01-12T10:39:47.423Z,30.96
2019-01-12T10:42:13.755Z,30.99
2019-01-12T10:44:40.133Z,30.94
2019-01-12T10:47:06.463Z,31.11
2019-01-12T10:49:32.848Z,31.07
2019-01-12T10:51:59.201Z,31.05
2019-01-12T10:54:25.540Z,31.12
2019-01-12T10:56:51.870Z,31.13
2019-01-12T10:59:18.202Z,31.01
2019-01-12T11:01:44.573Z,31.10
2019-01-12T11:04:10.964Z,31.05
2019-01-12T11:06:37.261Z,31.15
2019-01-12T11:09:03.586Z,31.04
2019-01-12T11:11:29.915Z,31.14
2019-01-12T11:13:56.296Z,31.21
2019-01-12T11:16:22.636Z,31.06
2019-01-12T11:18:49.044Z,31.02
2019-01-12T11:21:15.372Z,31.04
2019-01-12T11:23:41.767Z,31.09
2019-01-12T11:26:08.109Z,30.98
2019-01-12T11:28:34.501Z,30.95
2019-01-12T11:31:00.832Z,30.94
2019-01-12T11:33:27.182Z,30.88
2019-01-12T11:35:53.508Z,30.93
2019-01-12T11:38:19.899Z,30.93
2019-01-12T11:40:46.295Z,30.83
2019-01-12T11:43:12.576Z,30.99
2019-01-12T11:45:38.972Z,31.01
2019-01-12T11:48:05.301Z,30.95
2019-01-12T11:50:31.634Z,30.97
2019-01-12T11:52:58.020Z,30.94
2019-01-12T11:55:24.425Z,30.99
2019-01-12T11:57:50.822Z,31.06
2019-01-12T12:00:17.135Z,31.11
2019-01-12T12:02:43.470Z,31.06
2019-01-12T12:05:09.796Z,31.08
2019-01-12T12:07:36.126Z,31.05
2019-01-12T12:10:02.459Z,31.07
2019-01-12T12:12:28.787Z,31.18
2019-01-12T12:14:55.171Z,31.18
2019-01-12T12:17:21.531Z,31.17
2019-01-12T12:19:47.887Z,31.20
2019-01-12T12:22:14.215Z,31.16
2019-01-12T12:24:40.638Z,31.13
2019-01-12T12:27:06.953Z,31.23
2019-01-12T12:29:33.289Z,31.17
2019-01-12T12:31:59.635Z,31.26
2019-01-12T12:34:26.031Z,31.22
2019-01-12T12:36:52.483Z,31.37
2019-01-12T12:39:18.892Z,31.32
2019-01-12T12:41:45.174Z,31.34
2019-01-12T12:44:11.587Z,31.29
2019-01-12T12:46:37.924Z,31.26
2019-01-12T12:49:04.321Z,31.26
2019-01-12T12:51:30.784Z,31.30
2019-01-12T12:53:57.126Z,31.23
2019-01-12T12:56:23.447Z,31.36
2019-01-12T12:58:49.794Z,31.37
2019-01-12T13:01:16.177Z,31.29
2019-01-12T13:03:42.531Z,31.26
2019-01-12T13:06:08.858Z,31.29
2019-01-12T13:08:35.197Z,31.41
2019-01-12T13:11:01.539Z,31.29
2019-01-12T13:13:27.868Z,31.34
2019-01-12T13:15:54.204Z,31.29
2019-01-12T13:18:20.613Z,31.34
2019-01-12T13:20:46.936Z,31.44
2019-01-12T13:23:13.267Z,31.36
2019-01-12T13:25:39.610Z,31.37
2019-01-12T13:28:05.934Z,31.37
2019-01-12T13:30:32.318Z,31.42
2019-01-12T13:32:58.674Z,31.30
2019-01-12T13:35:25.005Z,31.44
2019-01-12T13:37:51.333Z,31.35
2019-01-12T13:40:17.717Z,31.38
2019-01-12T13:42:44.107Z,31.34
2019-01-12T13:45:10.447Z,31.42
2019-01-12T13:47:36.840Z,31.45
2019-01-12T13:50:03.219Z,31.43
2019-01-12T13:52:29.625Z,31.44
2019-01-12T13:54:55.975Z,31.46
2019-01-12T13:57:22.299Z,31.50
2019-01-12T13:59:48.633Z,31.48
2019-01-12T14:02:14.987Z,31.45
2019-01-12T14:04:41.320Z,31.63
2019-01-12T14:07:07.648Z,31.53
2019-01-12T14:09:34.087Z,31.50
2019-01-12T14:12:00.418Z,31.52
2019-01-12T14:14:26.850Z,31.49
2019-01-12T14:16:53.202Z,31.47
2019-01-12T14:19:19.593Z,31.53
2019-01-12T14:21:45.922Z,31.57
2019-01-12T14:24:12.253Z,31.53
2019-01-12T14:26:38.582Z,31.58
2019-01-12T14:29:04.952Z,31.55
2019-01-12T14:31:31.275Z,31.60
2019-01-12T14:33:57.668Z,31.50
2019-01-12T14:36:24.008Z,31.54
2019-01-12T14:38:50.344Z,31.61
2019-01-12T14:41:16.737Z,31.52
2019-01-12T14:43:43.077Z,31.67
2019-01-12T14:46:09.417Z,31.62
2019-01-12T14:48:35.762Z,31.60
2019-01-12T14:51:02.082Z,31.64
2019-01-12T14:53:28.461Z,31.63
2019-01-12T14:55:54.800Z,31.68
2019-01-12T14:58:21.134Z,31.72
2019-01-12T15:00:47.640Z,31.72
2019-01-12T15:03:13.983Z,31.71
2019-01-12T15:05:40.307Z,31.72
2019-01-12T15:08:06.645Z,31.80
2019-01-12T15:10:32.976Z,31.83
2019-01-12T15:12:59.349Z,31.72
2019-01-12T15:15:25.681Z,31.76
2019-01-12T15:17:52.011Z,31.81
2019-01-12T15:20:18.353Z,31.78
2019-01-12T15:22:44.730Z,31.90
2019-01-12T15:25:11.060Z,31.77
2019-01-12T15:27:37.393Z,31.77
2019-01-12T15:30:03.720Z,31.67
2019-01-12T15:32:30.069Z,31.75
2019-01-12T15:34:56.453Z,31.70
2019-01-12T15:37:22.888Z,31.76
2019-01-12T15:39:49.219Z,31.85
2019-01-12T15:42:15.550Z,31.70
2019-01-12T15:44:41.958Z,31.79
2019-01-12T15:47:08.411Z,31.82
2019-01-12T15:49:34.844Z,31.83
2019-01-12T15:52:01.275Z,31.86
2019-01-12T15:54:27.598Z,31.85
2019-01-12T15:56:53.940Z,31.76
2019-01-12T15:59:20.282Z,31.80
2019-01-12T16:01:46.636Z,31.80
2019-01-12T16:04:12.983Z,31.81
2019-01-12T16:06:39.306Z,31.84
2019-01-12T16:09:05.640Z,31.78
2019-01-12T16:11:32.014Z,31.81
2019-01-12T16:13:58.342Z,31.78
2019-01-12T16:16:24.666Z,31.74
2019-01-12T16:18:51.007Z,31.77
2019-01-12T16:21:17.333Z,31.73
2019-01-12T16:23:43.669Z,31.70
2019-01-12T16:26:10.024Z,31.73
2019-01-12T16:28:36.333Z,31.77
2019-01-12T16:31:02.673Z,31.72
2019-01-12T16:33:29.011Z,31.67
2019-01-12T16:35:55.341Z,31.67
2019-01-12T16:38:21.679Z,31.74
2019-01-12T16:40:48.022Z,31.74
2019-01-12T16:43:14.351Z,31.74
2019-01-12T16:45:40.735Z,31.71
2019-01-12T16:48:07.086Z,31.69
2019-01-12T16:50:33.515Z,31.75
2019-01-12T16:52:59.849Z,31.74
2019-01-12T16:55:26.175Z,31.66
2019-01-12T16:57:52.519Z,31.66
2019-01-12T17:00:18.855Z,31.63
2019-01-12T17:02:45.215Z,31.59
2019-01-12T17:05:11.582Z,31.60
2019-01-12T17:07:37.905Z,31.65
2019-01-12T17:10:04.252Z,31.64
2019-01-12T17:12:32.811Z,31.68
2019-01-12T17:14:59.143Z,31.63
2019-01-12T17:17:25.479Z,31.56
2019-01-12T17:19:51.847Z,31.63
2019-01-12T17:22:18.178Z,31.56
2019-01-12T17:24:44.509Z,31.56
2019-01-12T17:27:10.926Z,31.61
2019-01-12T17:29:37.268Z,31.55
2019-01-12T17:32:03.613Z,31.61
2019-01-12T17:34:29.940Z,31.62
2019-01-12T17:36:58.830Z,31.55
2019-01-12T17:39:22.707Z,31.58
2019-01-12T17:41:49.051Z,31.55
2019-01-12T17:44:15.392Z,31.65
2019-01-12T17:46:41.782Z,31.64
2019-01-12T17:49:08.135Z,31.66
2019-01-12T17:51:34.482Z,31.58
2019-01-12T17:54:00.814Z,31.69
2019-01-12T17:56:27.135Z,31.63
2019-01-12T17:58:53.467Z,31.67
2019-01-12T18:01:19.846Z,31.60
2019-01-12T18:03:46.159Z,31.56
2019-01-12T18:06:13.724Z,31.70
2019-01-12T18:08:38.841Z,31.59
2019-01-12T18:11:05.168Z,31.64
2019-01-12T18:13:31.505Z,31.55
2019-01-12T18:15:57.903Z,31.50
2019-01-12T18:18:24.255Z,31.53
2019-01-12T18:20:50.594Z,31.64
2019-01-12T18:23:16.928Z,31.65
2019-01-12T18:25:43.280Z,31.59
2019-01-12T18:28:09.612Z,31.63
2019-01-12T18:30:36.599Z,31.62
2019-01-12T18:33:02.346Z,31.64
2019-01-12T18:35:28.684Z,31.62
2019-01-12T18:37:55.211Z,31.66
2019-01-12T18:40:21.559Z,31.56
2019-01-12T18:42:47.899Z,31.59
2019-01-12T18:45:14.323Z,31.64
2019-01-12T18:47:40.584Z,31.59
2019-01-12T18:50:06.999Z,31.69
2019-01-12T18:52:33.338Z,31.71
2019-01-12T18:54:59.666Z,31.60
2019-01-12T18:57:26.043Z,31.64
2019-01-12T18:59:52.327Z,31.64
2019-01-12T19:02:18.719Z,31.57
2019-01-12T19:04:45.060Z,31.65
2019-01-12T19:07:11.404Z,31.69
2019-01-12T19:09:38.442Z,31.78
2019-01-12T19:12:04.153Z,31.74
2019-01-12T19:14:30.483Z,31.63
2019-01-12T19:16:56.808Z,31.67
2019-01-12T19:19:23.164Z,31.76
2019-01-12T19:21:49.515Z,31.71
2019-01-12T19:24:15.921Z,31.81
2019-01-12T19:26:42.357Z,31.79
2019-01-12T19:29:08.701Z,31.70
2019-01-12T19:31:35.067Z,31.76
2019-01-12T19:34:01.440Z,31.81
2019-01-12T19:36:27.854Z,31.75
2019-01-12T19:38:54.186Z,31.78
2019-01-12T19:41:20.513Z,31.78
2019-01-12T19:43:46.879Z,31.78
2019-01-12T19:46:13.240Z,31.79
2019-01-12T19:48:39.611Z,31.74
2019-01-12T19:51:05.941Z,31.90
2019-01-12T19:53:32.280Z,31.80
2019-01-12T19:55:58.668Z,31.76
2019-01-12T19:58:26.100Z,31.80
2019-01-12T20:00:51.409Z,31.86
2019-01-12T20:03:17.799Z,31.87
2019-01-12T20:05:44.132Z,31.96
2019-01-12T20:08:10.550Z,31.99
2019-01-12T20:10:36.851Z,32.04
2019-01-12T20:13:03.195Z,32.05
2019-01-12T20:15:29.567Z,32.09
2019-01-12T20:17:55.857Z,32.02
2019-01-12T20:20:22.245Z,32.02
2019-01-12T20:22:50.173Z,32.01
2019-01-12T20:25:14.971Z,32.18
2019-01-12T20:27:41.308Z,32.18
2019-01-12T20:30:07.686Z,32.16
2019-01-12T20:32:34.032Z,32.06
2019-01-12T20:35:00.389Z,32.13
2019-01-12T20:37:26.761Z,32.17
2019-01-12T20:39:53.071Z,32.19
2019-01-12T20:42:19.504Z,32.16
2019-01-12T20:44:45.833Z,32.15
2019-01-12T20:47:12.161Z,32.25
2019-01-12T20:49:38.523Z,32.27
2019-01-12T20:52:04.891Z,32.20
2019-01-12T20:54:31.237Z,32.25
2019-01-12T20:56:57.624Z,32.28
2019-01-12T20:59:28.113Z,32.32
2019-01-12T21:01:50.355Z,32.27
2019-01-12T21:04:16.640Z,32.29
2019-01-12T21:06:43.138Z,32.39
2019-01-12T21:09:09.473Z,32.42
2019-01-12T21:11:35.798Z,32.39
2019-01-12T21:14:02.156Z,32.54
2019-01-12T21:16:28.495Z,32.46
2019-01-12T21:18:54.866Z,32.58
2019-01-12T21:21:21.198Z,32.64
2019-01-12T21:23:47.527Z,32.75
2019-01-12T21:26:13.878Z,32.67
2019-01-12T21:28:40.227Z,32.69
2019-01-12T21:31:06.558Z,32.84
2019-01-12T21:33:32.888Z,32.69
2019-01-12T21:35:59.223Z,32.75
2019-01-12T21:38:25.548Z,32.67
2019-01-12T21:40:51.933Z,32.88
2019-01-12T21:43:18.332Z,32.77
2019-01-12T21:45:44.740Z,32.44
2019-01-12T21:48:11.074Z,32.61
2019-01-12T21:50:37.415Z,32.82
2019-01-12T21:53:03.792Z,33.00
2019-01-12T21:55:31.056Z,32.89
2019-01-12T21:57:56.512Z,32.76
2019-01-12T22:00:22.876Z,32.72
2019-01-12T22:02:49.218Z,32.80
2019-01-12T22:05:15.556Z,33.00
2019-01-12T22:07:41.988Z,32.87
2019-01-12T22:10:08.271Z,32.86
2019-01-12T22:12:34.655Z,32.95
2019-01-12T22:15:01.002Z,33.14
2019-01-12T22:17:27.479Z,33.04
2019-01-12T22:19:53.853Z,33.18
2019-01-12T22:22:20.134Z,33.13
2019-01-12T22:24:46.463Z,33.10
2019-01-12T22:27:12.792Z,33.13
2019-01-12T22:29:39.125Z,33.15
2019-01-12T22:32:05.485Z,33.04
2019-01-12T22:34:31.816Z,33.30
2019-01-12T22:36:58.195Z,33.16
2019-01-12T22:39:24.520Z,33.07
2019-01-12T22:41:50.903Z,33.13
2019-01-12T22:44:17.283Z,33.20
2019-01-12T22:46:43.623Z,33.03
2019-01-12T22:49:09.954Z,33.17
2019-01-12T22:51:36.346Z,33.16
2019-01-12T22:54:02.692Z,33.25
2019-01-12T22:56:30.203Z,33.11
2019-01-12T22:58:55.392Z,33.16
2019-01-12T23:01:21.812Z,33.23
2019-01-12T23:03:48.131Z,33.32
2019-01-12T23:06:14.487Z,33.20
2019-01-12T23:08:40.762Z,33.10
2019-01-12T23:11:07.208Z,33.15
2019-01-12T23:13:33.592Z,33.25
2019-01-12T23:15:59.916Z,33.18
2019-01-12T23:18:26.255Z,33.19
2019-01-12T23:20:52.590Z,33.19
2019-01-12T23:23:19.058Z,33.33
2019-01-12T23:25:45.387Z,33.36
2019-01-12T23:28:11.952Z,33.26
2019-01-12T23:30:38.343Z,33.26
2019-01-12T23:33:04.641Z,33.28
2019-01-12T23:35:31.059Z,33.46
2019-01-12T23:37:57.501Z,33.41
2019-01-12T23:40:23.832Z,33.45
2019-01-12T23:42:50.222Z,33.44
2019-01-12T23:45:16.562Z,33.61
2019-01-12T23:47:42.942Z,33.53
2019-01-12T23:50:09.274Z,33.67
2019-01-12T23:52:35.623Z,33.56
2019-01-12T23:55:01.963Z,33.54
2019-01-12T23:57:28.338Z,33.50
2019-01-12T23:59:54.694Z,33.59
